Time;durP1;ratioP1;P1;durP2;ratioP2;P2;SDS_P1;SDS_P2;PMS_P1;PMS_P2;Temp;Humidity;BMP_temperature;BMP_pressure;BME280_temperature;BME280_humidity;BME280_pressure;Samples;Min_cycle;Max_cycle;Signal;HPM_P1;HPM_P2
2022/06/08 00:01:05;;;;;;;15.17;12.23;;;;;;;17.44;100.00;98564.75;5058217;28;20264;-87
2022/06/08 00:03:56;;;;;;;17.83;12.17;;;;;;;18.66;100.00;98845.22;5058707;28;20175;-86
2022/06/08 00:06:22;;;;;;;15.40;12.57;;;;;;;18.40;100.00;98834.88;4979163;28;20239;-88
2022/06/08 00:08:47;;;;;;;15.23;12.87;;;;;;;17.82;100.00;98790.22;4962697;28;20188;-88
2022/06/08 00:11:14;;;;;;;16.07;12.37;;;;;;;17.32;100.00;98740.41;4979054;28;20239;-87
2022/06/08 00:13:42;;;;;;;14.50;11.97;;;;;;;17.59;100.00;98820.81;4979559;28;20172;-87
2022/06/08 00:16:08;;;;;;;19.43;12.77;;;;;;;15.43;100.00;98491.91;4979582;28;20660;-87
2022/06/08 00:18:33;;;;;;;15.63;12.77;;;;;;;17.18;100.00;98781.25;4977048;28;20195;-86
2022/06/08 00:20:59;;;;;;;17.53;13.20;;;;;;;16.71;100.00;98709.28;4977410;28;20168;-88
2022/06/08 00:23:25;;;;;;;15.93;12.53;;;;;;;15.92;100.00;98610.63;4977300;28;20191;-88
2022/06/08 00:25:50;;;;;;;17.53;13.50;;;;;;;17.42;100.00;98818.94;4976961;28;20262;-87
2022/06/08 00:28:16;;;;;;;16.10;13.73;;;;;;;15.27;100.00;98460.25;4977212;28;20235;-87
2022/06/08 00:30:42;;;;;;;16.97;13.60;;;;;;;15.33;100.00;98506.22;4976825;28;20200;-86
2022/06/08 00:33:08;;;;;;;18.20;13.40;;;;;;;16.93;100.00;98730.75;4977039;28;20280;-87
2022/06/08 00:35:33;;;;;;;17.87;13.60;;;;;;;14.69;100.00;98331.41;4977065;28;20274;-87
2022/06/08 00:37:59;;;;;;;17.47;13.13;;;;;;;16.68;100.00;98664.94;4988787;28;20192;-86
2022/06/08 00:40:35;;;;;;;17.30;13.40;;;;;;;17.68;100.00;98823.44;4978905;28;20299;-86
2022/06/08 00:43:00;;;;;;;17.40;13.00;;;;;;;17.13;100.00;98726.66;4999640;28;20189;-87
2022/06/08 00:45:26;;;;;;;17.33;13.00;;;;;;;17.78;100.00;98814.09;5057172;28;20572;-88
2022/06/08 00:47:57;;;;;;;17.40;13.80;;;;;;;17.35;100.00;98817.19;5058557;28;20174;-87
2022/06/08 00:50:38;;;;;;;17.90;13.47;;;;;;;16.86;100.00;98754.56;5077891;28;20192;-87
2022/06/08 00:53:04;;;;;;;18.13;14.20;;;;;;;16.36;100.00;98706.41;5079278;28;20157;-86
2022/06/08 00:55:32;;;;;;;17.03;13.70;;;;;;;16.29;100.00;98708.84;5062019;28;20628;-86
2022/06/08 00:58:01;;;;;;;16.63;14.40;;;;;;;14.01;100.00;98344.97;5060910;28;20204;-86
2022/06/08 01:00:39;;;;;;;19.90;14.40;;;;;;;16.13;100.00;98717.19;5062443;28;20174;-87
2022/06/08 01:03:10;;;;;;;21.07;14.87;;;;;;;16.45;100.00;98761.84;5057954;28;20181;-88
2022/06/08 01:05:40;;;;;;;18.47;14.03;;;;;;;16.28;100.00;98689.28;5061289;28;20201;-86
2022/06/08 01:08:35;;;;;;;17.20;13.43;;;;;;;17.32;100.00;98828.25;5069475;28;20173;-87
2022/06/08 01:11:10;;;;;;;21.43;14.00;;;;;;;17.55;100.00;98828.47;5060876;28;20249;-87
2022/06/08 01:13:38;;;;;;;18.60;13.67;;;;;;;17.15;100.00;98772.69;5060131;28;20165;-86
2022/06/08 01:16:06;;;;;;;17.10;12.70;;;;;;;15.45;100.00;98480.00;5059398;28;20529;-87
2022/06/08 01:18:33;;;;;;;16.23;12.83;;;;;;;17.48;100.00;98819.84;5060294;28;20600;-87
2022/06/08 01:21:21;;;;;;;15.40;11.93;;;;;;;17.59;100.00;98823.38;5059916;28;20249;-87
2022/06/08 01:24:00;;;;;;;14.97;12.07;;;;;;;16.18;100.00;98585.34;5059257;28;20581;-88
2022/06/08 01:26:40;;;;;;;14.33;11.53;;;;;;;16.67;100.00;98653.91;5059277;28;20638;-88
2022/06/08 01:29:17;;;;;;;13.47;11.23;;;;;;;17.46;100.00;98793.41;5058842;28;20169;-88
2022/06/08 01:32:03;;;;;;;17.17;11.13;;;;;;;17.63;100.00;98814.03;5057556;28;20229;-87
2022/06/08 01:34:41;;;;;;;13.67;10.57;;;;;;;17.69;100.00;98822.56;5057918;28;20165;-87
2022/06/08 01:37:22;;;;;;;16.00;11.00;;;;;;;17.73;100.00;98820.03;5056991;28;20586;-88
2022/06/08 01:40:12;;;;;;;14.70;10.73;;;;;;;17.75;100.00;98826.00;5055312;28;20237;-87
2022/06/08 01:42:53;;;;;;;14.97;10.80;;;;;;;17.82;100.00;98823.53;5056065;28;20681;-88
2022/06/08 01:45:33;;;;;;;14.67;10.33;;;;;;;17.69;100.00;98822.56;5057215;28;20301;-89
2022/06/08 01:48:42;;;;;;;11.43;9.90;;;;;;;16.20;100.00;98543.66;5057604;28;20173;-87
2022/06/08 01:51:16;;;;;;;13.10;10.60;;;;;;;17.77;100.00;98821.78;4996162;28;20286;-86
2022/06/08 01:53:51;;;;;;;17.60;10.67;;;;;;;17.36;100.00;98762.63;4996595;28;20176;-87
2022/06/08 01:56:29;;;;;;;14.63;10.73;;;;;;;17.30;100.00;98721.66;4996437;28;20190;-86
2022/06/08 01:59:09;;;;;;;15.33;10.90;;;;;;;17.77;100.00;98817.53;4996738;28;20183;-87
2022/06/08 02:01:48;;;;;;;13.70;10.47;;;;;;;16.91;100.00;98666.84;4979617;28;20195;-88
2022/06/08 02:04:38;;;;;;;13.07;10.00;;;;;;;16.75;100.00;98684.63;4994816;28;20175;-87
2022/06/08 02:07:10;;;;;;;12.37;10.10;;;;;;;17.50;100.00;98809.59;4995810;28;20237;-88
2022/06/08 02:09:47;;;;;;;11.10;9.70;;;;;;;17.16;100.00;98800.00;4997848;28;20195;-87
2022/06/08 02:12:14;;;;;;;14.20;10.10;;;;;;;16.67;100.00;98682.00;4999727;28;20644;-87
2022/06/08 02:14:46;;;;;;;14.27;10.57;;;;;;;15.94;100.00;98566.41;4997328;28;20194;-87
2022/06/08 02:17:11;;;;;;;17.00;10.63;;;;;;;17.49;100.00;98810.47;4982128;28;20600;-87
2022/06/08 02:19:43;;;;;;;12.13;10.33;;;;;;;17.47;100.00;98820.69;4978824;28;20668;-88
2022/06/08 02:22:20;;;;;;;16.57;10.63;;;;;;;17.13;100.00;98767.56;4993821;28;20234;-89
2022/06/08 02:24:59;;;;;;;13.10;11.10;;;;;;;17.46;100.00;98807.91;4995086;28;20210;-88
2022/06/08 02:27:37;;;;;;;14.53;11.20;;;;;;;17.34;100.00;98820.59;5013228;28;20288;-88
2022/06/08 02:30:09;;;;;;;15.93;11.23;;;;;;;17.42;100.00;98816.38;5061253;28;20633;-88
2022/06/08 02:35:35;;;;;;;12.70;10.90;;;;;;;16.49;100.00;98717.56;5055382;28;20196;-88
2022/06/08 02:38:07;;;;;;;19.13;11.20;;;;;;;16.07;100.00;98641.41;5056263;28;20192;-87
2022/06/08 02:40:35;;;;;;;17.07;11.70;;;;;;;15.26;100.00;98541.84;5054502;28;20223;-87
2022/06/08 02:43:07;;;;;;;14.73;11.50;;;;;;;16.57;100.00;98767.09;5056382;28;20563;-86
2022/06/08 02:45:38;;;;;;;18.47;12.00;;;;;;;16.78;100.00;98832.91;5056158;28;20211;-86
2022/06/08 02:48:09;;;;;;;14.73;11.90;;;;;;;16.62;100.00;98816.53;5055817;28;20170;-88
2022/06/08 02:50:36;;;;;;;18.87;12.57;;;;;;;12.66;100.00;98151.56;5055701;28;20177;-88
2022/06/08 02:53:33;;;;;;;15.80;12.57;;;;;;;16.30;100.00;98742.09;5057275;28;20173;-86
2022/06/08 02:56:08;;;;;;;19.20;14.20;;;;;;;16.81;100.00;98823.53;5059615;28;20165;-86
2022/06/08 02:58:46;;;;;;;17.90;13.23;;;;;;;16.16;100.00;98682.34;5057476;28;20165;-88
2022/06/08 03:01:22;;;;;;;17.90;13.80;;;;;;;17.14;100.00;98827.28;5056477;28;20256;-87
2022/06/08 03:03:56;;;;;;;21.83;15.70;;;;;;;16.68;100.00;98805.53;5057825;28;20235;-87
2022/06/08 03:06:53;;;;;;;23.53;17.23;;;;;;;16.67;100.00;98820.03;5058823;28;20185;-88
2022/06/08 03:09:21;;;;;;;27.63;17.53;;;;;;;16.90;100.00;98818.53;4994521;28;20191;-88
2022/06/08 03:11:53;;;;;;;27.00;17.70;;;;;;;16.72;100.00;98815.81;5010966;28;20152;-88
2022/06/08 03:14:19;;;;;;;30.40;18.37;;;;;;;15.46;100.00;98627.16;5016370;28;20179;-85
2022/06/08 03:17:04;;;;;;;24.80;18.00;;;;;;;16.80;100.00;98831.22;5007698;28;20217;-88
2022/06/08 03:19:32;;;;;;;28.77;19.70;;;;;;;16.92;100.00;98811.72;4998227;28;20199;-89
2022/06/08 03:21:58;;;;;;;26.93;19.43;;;;;;;16.25;100.00;98691.81;4996542;28;20175;-88
2022/06/08 03:24:25;;;;;;;29.60;20.13;;;;;;;17.11;100.00;98818.69;4993415;28;20800;-86
2022/06/08 03:27:01;;;;;;;32.00;18.60;;;;;;;16.75;100.00;98735.75;4994012;28;20202;-89
2022/06/08 03:29:26;;;;;;;25.80;17.50;;;;;;;15.80;100.00;98555.19;4993253;28;20224;-88
2022/06/08 03:31:53;;;;;;;27.50;17.40;;;;;;;16.42;100.00;98662.16;4993188;28;20167;-87
2022/06/08 03:34:19;;;;;;;24.03;16.33;;;;;;;16.92;100.00;98734.19;4992692;28;20183;-88
2022/06/08 03:36:45;;;;;;;24.03;16.20;;;;;;;16.14;100.00;98587.00;4977328;28;20186;-87
2022/06/08 03:39:11;;;;;;;22.07;15.80;;;;;;;17.72;100.00;98837.09;4992281;28;20265;-87
2022/06/08 03:41:36;;;;;;;19.23;14.97;;;;;;;17.38;100.00;98782.25;4994014;28;20659;-88
2022/06/08 03:44:03;;;;;;;18.60;14.57;;;;;;;17.66;100.00;98830.22;5002466;28;20825;-87
2022/06/08 03:46:33;;;;;;;20.87;14.57;;;;;;;17.55;100.00;98797.75;5036925;28;20233;-88
2022/06/08 03:48:58;;;;;;;21.27;14.07;;;;;;;16.45;100.00;98606.81;5044454;28;20228;-87
2022/06/08 03:51:24;;;;;;;18.93;14.57;;;;;;;17.99;100.00;98842.38;5042489;28;20174;-89
2022/06/08 03:53:58;;;;;;;20.57;15.33;;;;;;;17.44;100.00;98772.03;5046226;28;20619;-87
2022/06/08 03:56:26;;;;;;;25.20;15.07;;;;;;;17.95;100.00;98850.03;5046958;28;20258;-87
2022/06/08 03:58:53;;;;;;;17.13;13.40;;;;;;;17.66;100.00;98784.16;5049441;28;20635;-87
2022/06/08 04:01:19;;;;;;;19.53;13.20;;;;;;;17.79;100.00;98797.91;5046191;28;20249;-89
2022/06/08 04:03:47;;;;;;;22.87;13.73;;;;;;;17.88;100.00;98805.59;5042280;28;20205;-88
2022/06/08 04:06:13;;;;;;;17.33;13.77;;;;;;;17.38;100.00;98700.38;5001944;28;20246;-88
2022/06/08 04:08:38;;;;;;;18.20;14.07;;;;;;;18.11;100.00;98816.81;4977441;28;20668;-88
2022/06/08 04:11:04;;;;;;;19.53;13.83;;;;;;;17.53;100.00;98712.38;4993485;28;20629;-88
2022/06/08 04:13:29;;;;;;;15.33;12.77;;;;;;;17.38;100.00;98705.50;4992742;28;20176;-88
2022/06/08 04:15:55;;;;;;;19.93;12.60;;;;;;;18.16;100.00;98793.78;4978593;28;20202;-88
2022/06/08 04:18:22;;;;;;;15.97;12.57;;;;;;;17.37;100.00;98646.63;5013259;28;20197;-87
2022/06/08 04:20:53;;;;;;;19.37;12.90;;;;;;;18.48;99.32;98814.44;5012547;28;20191;-88
2022/06/08 04:23:20;;;;;;;20.20;13.63;;;;;;;18.21;100.00;98757.06;5013443;28;20225;-89
2022/06/08 04:25:46;;;;;;;15.87;11.07;;;;;;;18.14;97.95;98709.25;5013792;28;20226;-88
2022/06/08 04:28:15;;;;;;;13.70;10.27;;;;;;;19.13;96.31;98863.28;5018455;28;20262;-87
2022/06/08 04:30:41;;;;;;;17.43;11.30;;;;;;;17.69;95.38;98604.97;5020222;28;20177;-87
2022/06/08 04:33:07;;;;;;;12.27;10.10;;;;;;;19.27;94.08;98870.13;5016685;28;20557;-86
2022/06/08 04:35:33;;;;;;;15.33;10.33;;;;;;;19.36;94.81;98880.41;5019930;28;20175;-88
2022/06/08 04:38:00;;;;;;;15.90;11.13;;;;;;;19.36;95.00;98884.69;5055713;28;20200;-87
2022/06/08 04:40:26;;;;;;;15.53;11.27;;;;;;;19.71;92.79;98877.84;5070057;28;20232;-87
2022/06/08 04:42:53;;;;;;;13.93;11.37;;;;;;;19.80;91.71;98879.56;5065714;28;20188;-87
2022/06/08 04:45:19;;;;;;;16.00;11.80;;;;;;;17.74;94.03;98607.56;5062491;28;20304;-91
2022/06/08 04:47:44;;;;;;;14.97;11.40;;;;;;;16.99;93.29;98431.63;5059799;28;20417;-88
2022/06/08 04:50:10;;;;;;;14.43;11.40;;;;;;;19.39;93.88;98892.44;5057867;28;20195;-87
2022/06/08 04:52:37;;;;;;;15.10;11.30;;;;;;;17.96;95.29;98675.91;5058339;28;20675;-87
2022/06/08 04:55:04;;;;;;;13.23;11.13;;;;;;;18.90;93.68;98770.88;5058325;28;20661;-86
2022/06/08 04:57:33;;;;;;;15.67;11.90;;;;;;;18.04;95.40;98640.91;5057687;28;20231;-87
2022/06/08 04:59:59;;;;;;;17.60;11.83;;;;;;;19.20;94.81;98786.28;5053722;28;20182;-88
2022/06/08 05:02:44;;;;;;;17.50;12.10;;;;;;;19.72;94.02;98892.38;5037926;28;20213;-87
2022/06/08 05:05:27;;;;;;;16.83;11.73;;;;;;;20.12;92.45;98898.31;5035531;28;20259;-88
2022/06/08 05:07:54;;;;;;;15.50;11.90;;;;;;;19.29;98.42;98896.66;5037237;28;20193;-87
2022/06/08 05:10:21;;;;;;;17.07;12.37;;;;;;;18.52;95.05;98693.09;5038235;28;20653;-87
2022/06/08 05:12:47;;;;;;;17.07;12.40;;;;;;;18.53;93.30;98618.75;5037545;28;20178;-88
2022/06/08 05:15:20;;;;;;;16.80;12.83;;;;;;;20.14;94.38;98886.31;5038881;28;20249;-87
2022/06/08 05:17:45;;;;;;;16.20;12.80;;;;;;;18.91;93.38;98646.94;5037796;28;20174;-87
2022/06/08 05:20:13;;;;;;;18.27;13.20;;;;;;;18.74;95.05;98646.94;5037928;28;20220;-87
2022/06/08 05:22:38;;;;;;;18.97;13.73;;;;;;;20.03;94.18;98842.66;5038452;28;20654;-88
2022/06/08 05:25:07;;;;;;;16.53;13.23;;;;;;;19.61;93.63;98729.78;5039051;28;20201;-88
2022/06/08 05:27:32;;;;;;;19.03;12.83;;;;;;;20.48;94.22;98918.81;5038498;28;20169;-88
2022/06/08 05:29:58;;;;;;;18.53;13.10;;;;;;;20.53;94.89;98882.78;5042832;28;20193;-88
2022/06/08 05:32:23;;;;;;;17.03;13.23;;;;;;;18.13;92.18;98446.22;5046866;28;20221;-85
2022/06/08 05:34:49;;;;;;;15.20;10.83;;;;;;;19.43;91.09;98663.94;5072861;28;20237;-84
2022/06/08 05:37:14;;;;;;;13.10;10.90;;;;;;;20.05;90.34;98762.16;5090658;28;20193;-87
2022/06/08 05:39:41;;;;;;;11.87;10.37;;;;;;;20.41;92.30;98881.13;5064266;28;20225;-86
2022/06/08 05:42:10;;;;;;;14.30;10.03;;;;;;;19.80;92.63;98807.63;5071037;28;20168;-90
2022/06/08 05:44:37;;;;;;;10.83;9.70;;;;;;;20.39;90.89;98884.56;5057443;28;20197;-88
2022/06/08 05:47:04;;;;;;;12.33;8.90;;;;;;;20.79;87.27;98892.97;5050806;28;20693;-88
2022/06/08 05:49:34;;;;;;;18.23;9.00;;;;;;;17.94;83.61;98336.97;5066307;28;20177;-88
2022/06/08 05:52:02;;;;;;;11.87;8.73;;;;;;;20.89;83.54;98886.91;5045566;23;20237;-88
2022/06/08 05:54:32;;;;;;;11.17;8.33;;;;;;;21.50;81.05;98888.22;5054910;28;20201;-90
2022/06/08 05:57:02;;;;;;;10.43;8.57;;;;;;;17.42;79.76;98139.19;5032704;28;20230;-87
2022/06/08 05:59:27;;;;;;;10.87;9.40;;;;;;;19.51;78.57;98455.09;5047369;28;20306;-87
2022/06/08 06:01:57;;;;;;;11.17;8.30;;;;;;;19.52;77.57;98464.50;5166993;22;20255;-87
2022/06/08 06:04:23;;;;;;;11.23;8.53;;;;;;;18.78;76.39;98297.34;5064295;28;20208;-87
2022/06/08 06:06:51;;;;;;;8.87;7.97;;;;;;;22.50;75.37;98873.44;5036244;28;20216;-88
2022/06/08 06:09:21;;;;;;;10.00;8.50;;;;;;;22.62;75.18;98871.56;5033292;28;20297;-89
2022/06/08 06:11:49;;;;;;;10.67;8.77;;;;;;;19.31;77.29;98429.53;5046023;28;20172;-87
2022/06/08 06:14:15;;;;;;;10.73;8.93;;;;;;;18.98;76.86;98306.63;5059471;28;20197;-86
2022/06/08 06:16:41;;;;;;;11.37;9.13;;;;;;;18.95;77.60;98320.31;5048867;28;20209;-88
2022/06/08 06:19:08;;;;;;;11.23;9.17;;;;;;;18.37;77.26;98155.78;5030957;28;20193;-88
2022/06/08 06:21:35;;;;;;;11.37;9.20;;;;;;;22.91;75.75;98873.78;5048857;28;20181;-87
2022/06/08 06:24:21;;;;;;;10.80;8.50;;;;;;;21.65;72.63;98632.16;5073279;28;20208;-87
2022/06/08 06:26:49;;;;;;;9.03;8.17;;;;;;;20.90;72.21;98484.63;5114740;22;20232;-86
2022/06/08 06:29:15;;;;;;;12.17;8.23;;;;;;;21.14;70.79;98515.22;5065552;28;20178;-88
2022/06/08 06:31:46;;;;;;;10.60;8.80;;;;;;;19.62;70.48;98255.56;5070593;28;20626;-87
2022/06/08 06:34:15;;;;;;;12.63;8.23;;;;;;;19.78;70.14;98239.13;5065965;28;20328;-87
2022/06/08 06:36:41;;;;;;;9.13;8.13;;;;;;;20.02;70.59;98303.09;5069737;28;20165;-88
2022/06/08 06:39:07;;;;;;;11.23;9.07;;;;;;;20.50;70.62;98404.50;5069313;28;20197;-86
2022/06/08 06:41:33;;;;;;;11.83;9.63;;;;;;;20.41;72.00;98474.88;5069657;28;20185;-86
2022/06/08 06:43:59;;;;;;;14.47;9.57;;;;;;;19.15;72.97;98241.47;5067951;28;20260;-89
2022/06/08 06:46:25;;;;;;;13.47;9.87;;;;;;;21.36;71.60;98508.94;5068658;28;20204;-87
2022/06/08 06:48:54;;;;;;;13.43;9.07;;;;;;;20.19;70.64;98292.63;5075873;28;20236;-86
2022/06/08 06:51:19;;;;;;;12.10;10.13;;;;;;;19.93;69.66;98185.00;5073549;28;20166;-86
2022/06/08 06:53:45;;;;;;;15.50;9.93;;;;;;;20.45;69.41;98249.44;5067735;28;20246;-87
2022/06/08 06:56:10;;;;;;;13.23;9.70;;;;;;;20.23;69.43;98192.31;5066009;28;20189;-86
2022/06/08 06:58:37;;;;;;;13.37;10.00;;;;;;;21.00;68.43;98295.78;5058826;28;20180;-87
2022/06/08 07:01:07;;;;;;;16.40;11.23;;;;;;;21.64;71.18;98483.63;5058583;28;20173;-88
2022/06/08 07:03:34;;;;;;;16.10;10.73;;;;;;;22.22;71.41;98592.69;5068398;28;20183;-87
2022/06/08 07:05:59;;;;;;;16.50;9.93;;;;;;;22.46;69.76;98528.69;5070285;28;20193;-87
2022/06/08 07:08:25;;;;;;;13.53;8.43;;;;;;;21.07;66.89;98245.91;5052389;28;20174;-88
2022/06/08 07:13:34;;;;;;;10.93;7.10;;;;;;;22.54;65.77;98436.53;5062789;28;20188;-87
2022/06/08 07:16:00;;;;;;;12.37;7.60;;;;;;;23.69;64.61;98569.28;5062012;28;20165;-89
2022/06/08 07:18:26;;;;;;;11.93;7.90;;;;;;;23.86;61.36;98581.84;5059775;28;20189;-88
2022/06/08 07:20:52;;;;;;;12.47;8.67;;;;;;;25.30;65.07;98840.75;5040425;28;20166;-87
2022/06/08 07:23:18;;;;;;;14.30;8.33;;;;;;;24.33;65.14;98692.88;5063468;28;20196;-87
2022/06/08 07:25:43;;;;;;;14.73;9.47;;;;;;;22.39;63.64;98411.88;5084364;28;20247;-88
2022/06/08 07:28:10;;;;;;;11.67;8.43;;;;;;;23.70;63.93;98627.88;5067820;28;20187;-87
2022/06/08 07:30:36;;;;;;;10.70;8.57;;;;;;;25.20;62.21;98815.97;5045149;28;20966;-87
2022/06/08 07:33:02;;;;;;;15.27;8.30;;;;;;;23.63;61.71;98499.66;5026396;28;20193;-86
2022/06/08 07:35:29;;;;;;;9.27;7.60;;;;;;;26.31;61.23;98845.91;5036950;28;20198;-87
2022/06/08 07:37:55;;;;;;;11.43;8.23;;;;;;;23.03;60.71;98307.31;5032041;28;20205;-87
2022/06/08 07:40:20;;;;;;;9.07;7.33;;;;;;;24.43;59.47;98494.25;5018692;28;20264;-87
2022/06/08 07:42:46;;;;;;;12.03;7.60;;;;;;;24.21;60.12;98475.00;5020564;28;20197;-88
2022/06/08 07:45:12;;;;;;;9.70;7.30;;;;;;;26.28;59.72;98834.75;5036735;28;20255;-87
2022/06/08 07:49:36;;;;;;;10.43;7.60;;;;;;;24.12;58.86;98481.25;5043971;28;20204;-87
2022/06/08 07:50:24;;;;;;;8.13;6.90;;;;;;;23.92;59.66;98442.09;5053376;28;20193;-86
2022/06/08 07:52:49;;;;;;;9.57;6.60;;;;;;;24.46;58.04;98465.69;5049514;28;20198;-86
2022/06/08 07:55:16;;;;;;;7.18;5.70;;;;;;;25.94;56.11;98676.56;5022481;28;20192;-86
2022/06/08 07:57:42;;;;;;;9.77;5.32;;;;;;;25.82;54.90;98710.66;5007273;28;20234;-87
2022/06/08 08:00:09;;;;;;;7.60;5.72;;;;;;;24.83;54.97;98564.78;5035558;28;20194;-86
2022/06/08 08:02:36;;;;;;;9.32;5.93;;;;;;;26.47;55.29;98848.06;5025639;28;20286;-87
2022/06/08 08:05:02;;;;;;;7.88;5.80;;;;;;;26.50;56.21;98846.22;5068112;28;20209;-88
2022/06/08 08:07:28;;;;;;;8.98;5.93;;;;;;;25.96;56.27;98736.22;5066869;28;20169;-87
2022/06/08 08:09:53;;;;;;;8.27;5.53;;;;;;;26.02;56.26;98786.16;5054507;28;20260;-87
2022/06/08 08:12:19;;;;;;;6.47;5.38;;;;;;;26.45;55.18;98796.19;5053669;28;20169;-91
2022/06/08 08:14:45;;;;;;;7.07;5.95;;;;;;;26.92;55.15;98855.34;5035933;28;20281;-88
2022/06/08 08:17:10;;;;;;;7.45;6.20;;;;;;;23.88;54.01;98286.19;5038563;28;20236;-86
2022/06/08 08:19:39;;;;;;;8.77;6.10;;;;;;;26.78;54.47;98862.69;5039686;28;20182;-87
2022/06/08 08:22:07;;;;;;;9.45;5.70;;;;;;;26.93;54.78;98848.41;5048608;28;20203;-86
2022/06/08 08:24:33;;;;;;;6.88;5.20;;;;;;;25.31;54.19;98577.28;5027155;28;20202;-89
2022/06/08 08:26:58;;;;;;;7.43;6.07;;;;;;;25.76;53.17;98596.72;5043284;28;20708;-87
2022/06/08 08:29:24;;;;;;;7.47;6.00;;;;;;;25.95;53.73;98644.56;5039714;28;20176;-88
2022/06/08 08:31:52;;;;;;;7.53;5.53;;;;;;;23.67;51.99;98328.13;5041344;28;20227;-88
2022/06/08 08:34:17;;;;;;;6.35;5.57;;;;;;;25.09;52.14;98531.28;5042054;28;20183;-87
2022/06/08 08:36:43;;;;;;;7.60;6.18;;;;;;;25.85;52.73;98640.53;5039192;28;20168;-87
2022/06/08 08:39:08;;;;;;;7.53;5.90;;;;;;;24.57;52.31;98313.56;5039740;28;20184;-87
2022/06/08 08:44:23;;;;;;;6.93;5.30;;;;;;;28.32;50.18;98861.91;5041619;28;20233;-87
2022/06/08 08:47:02;;;;;;;6.45;5.43;;;;;;;27.49;48.43;98747.81;5042476;28;20202;-87
2022/06/08 08:49:32;;;;;;;6.00;4.93;;;;;;;26.92;50.46;98761.81;5038571;28;20596;-87
2022/06/08 08:52:00;;;;;;;6.03;5.10;;;;;;;27.54;48.88;98868.13;5055478;28;20177;-87
2022/06/08 08:54:35;;;;;;;7.45;5.25;;;;;;;27.23;48.82;98805.84;5055529;28;20181;-87
2022/06/08 08:57:11;;;;;;;8.63;5.38;;;;;;;25.45;50.27;98471.47;5056639;28;20161;-86
2022/06/08 08:59:37;;;;;;;5.65;5.15;;;;;;;27.21;47.67;98763.47;5056133;28;20165;-87
2022/06/08 09:02:03;;;;;;;8.43;5.13;;;;;;;27.56;49.06;98842.06;5057124;28;20672;-88
2022/06/08 09:04:32;;;;;;;6.03;4.80;;;;;;;26.54;48.52;98597.69;5056424;28;20223;-88
2022/06/08 09:07:03;;;;;;;5.15;4.65;;;;;;;27.59;47.67;98715.38;5055943;28;20186;-87
2022/06/08 09:09:32;;;;;;;7.57;4.60;;;;;;;27.83;47.19;98763.03;5060150;28;20174;-88
2022/06/08 09:11:57;;;;;;;7.55;4.68;;;;;;;28.23;48.23;98825.81;5059025;28;20213;-88
2022/06/08 09:14:26;;;;;;;6.82;4.50;;;;;;;28.41;47.81;98827.72;5058306;28;20168;-88
2022/06/08 09:17:15;;;;;;;5.70;4.18;;;;;;;27.60;47.06;98826.31;5056900;28;20167;-88
2022/06/08 09:19:46;;;;;;;5.40;4.10;;;;;;;27.60;47.46;98822.84;5056682;28;20213;-88
2022/06/08 09:22:13;;;;;;;4.38;3.97;;;;;;;28.06;47.40;98822.97;5061352;28;20178;-87
2022/06/08 09:24:53;;;;;;;6.80;4.38;;;;;;;27.06;46.71;98582.06;5062815;28;20208;-89
2022/06/08 09:27:33;;;;;;;5.72;4.25;;;;;;;28.57;47.26;98825.38;5061253;28;20223;-88
2022/06/08 09:29:59;;;;;;;5.90;4.35;;;;;;;28.62;47.75;98832.16;5056525;28;20159;-88
2022/06/08 09:32:56;;;;;;;7.35;4.45;;;;;;;27.69;47.61;98708.91;5062461;28;20190;-87
2022/06/08 09:35:33;;;;;;;6.00;4.20;;;;;;;28.41;47.70;98817.31;5001282;28;20256;-87
2022/06/08 09:38:12;;;;;;;5.07;3.70;;;;;;;28.63;45.73;98819.97;4999476;28;20218;-87
2022/06/08 09:40:57;;;;;;;5.43;3.65;;;;;;;28.74;45.74;98822.16;4999964;28;20690;-86
2022/06/08 09:43:42;;;;;;;4.38;3.70;;;;;;;28.81;45.90;98819.28;4990337;28;20221;-87
2022/06/08 09:46:10;;;;;;;4.30;3.70;;;;;;;28.98;44.35;98818.63;4990510;28;20221;-89
2022/06/08 09:51:56;;;;;;;3.80;3.42;;;;;;;28.86;44.55;98806.06;4993892;28;20201;-87
2022/06/08 09:54:33;;;;;;;5.55;3.95;;;;;;;27.86;45.30;98651.91;4994752;28;20233;-87
2022/06/08 09:57:32;;;;;;;4.28;3.47;;;;;;;28.56;45.55;98802.88;4993761;28;20179;-86
2022/06/08 10:00:10;;;;;;;4.32;3.83;;;;;;;28.35;46.15;98744.63;4992536;28;20246;-85
2022/06/08 10:02:46;;;;;;;4.82;3.92;;;;;;;28.61;47.38;98795.72;4989715;28;20189;-86
2022/06/08 10:05:23;;;;;;;4.50;3.80;;;;;;;29.03;46.00;98793.22;4993928;28;20269;-86
2022/06/08 10:08:19;;;;;;;5.88;3.72;;;;;;;28.42;45.75;98792.13;5000550;28;20281;-86
2022/06/08 10:11:34;;;;;;;5.15;3.90;;;;;;;27.91;45.86;98784.44;5020099;28;20201;-86
2022/06/08 10:14:00;;;;;;;6.72;3.67;;;;;;;27.85;46.85;98724.84;5071527;28;20644;-88
2022/06/08 10:16:31;;;;;;;4.30;3.90;;;;;;;27.34;46.85;98639.94;5054215;28;20181;-87
2022/06/08 10:19:06;;;;;;;4.32;3.80;;;;;;;28.12;46.09;98775.03;5040603;28;20185;-88
2022/06/08 10:21:41;;;;;;;4.50;4.07;;;;;;;27.05;46.70;98559.59;5041276;28;20170;-89
2022/06/08 10:24:12;;;;;;;5.53;3.80;;;;;;;28.17;46.34;98767.91;5035418;28;20197;-87
2022/06/08 10:26:53;;;;;;;5.72;4.30;;;;;;;28.57;46.80;98758.50;5035750;28;20226;-88
2022/06/08 10:29:23;;;;;;;5.40;4.10;;;;;;;28.42;47.52;98763.47;5055495;28;20172;-88
2022/06/08 10:31:57;;;;;;;5.88;4.57;;;;;;;28.45;47.91;98769.44;5057478;28;20179;-87
2022/06/08 10:34:27;;;;;;;5.80;4.10;;;;;;;28.72;47.10;98772.72;5056285;28;20233;-88
2022/06/08 10:36:58;;;;;;;7.30;4.20;;;;;;;28.72;47.20;98762.31;5054436;28;20264;-87
2022/06/08 10:39:27;;;;;;;4.43;4.03;;;;;;;28.36;48.45;98758.50;5045051;28;20179;-85
2022/06/08 10:44:58;;;;;;;4.22;3.83;;;;;;;27.97;47.43;98713.97;5036424;28;20656;-87
2022/06/08 10:47:33;;;;;;;6.40;4.32;;;;;;;26.97;47.45;98503.59;5048804;28;20189;-87
2022/06/08 10:50:01;;;;;;;4.97;4.00;;;;;;;28.47;47.82;98736.34;5053462;28;20174;-88
2022/06/08 10:52:48;;;;;;;5.20;4.20;;;;;;;28.31;48.24;98730.03;5057595;28;20176;-85
2022/06/08 10:55:13;;;;;;;7.32;4.20;;;;;;;28.13;47.67;98728.13;5058931;28;20184;-87
2022/06/08 10:57:43;;;;;;;5.70;4.30;;;;;;;27.28;48.32;98621.13;5060199;28;20196;-86
2022/06/08 11:00:24;;;;;;;4.50;3.97;;;;;;;28.13;49.42;98722.91;5054515;28;20172;-87
2022/06/08 11:02:55;;;;;;;4.70;4.20;;;;;;;28.52;48.89;98710.97;5052917;28;20181;-88
2022/06/08 11:05:33;;;;;;;5.18;4.40;;;;;;;28.57;47.55;98696.00;5053319;28;20204;-87
2022/06/08 11:08:01;;;;;;;4.53;4.05;;;;;;;28.85;46.56;98690.53;5054846;28;20188;-86
2022/06/08 11:10:43;;;;;;;5.97;4.47;;;;;;;28.54;49.20;98690.91;5055355;28;20192;-87
2022/06/08 11:13:54;;;;;;;6.70;4.20;;;;;;;28.65;46.94;98693.97;5047666;28;20177;-87
2022/06/08 11:16:28;;;;;;;8.38;4.50;;;;;;;28.49;47.08;98682.44;4974920;28;20201;-83
2022/06/08 11:19:14;;;;;;;6.43;4.20;;;;;;;27.90;46.97;98617.06;4992052;28;20237;-84
2022/06/08 11:21:45;;;;;;;6.75;3.78;;;;;;;27.16;48.02;98573.03;4991178;28;20297;-84
2022/06/08 11:24:29;;;;;;;4.47;3.80;;;;;;;28.08;46.93;98685.81;4990514;28;20191;-83
2022/06/08 11:27:00;;;;;;;5.43;3.88;;;;;;;28.19;46.90;98678.44;4978149;28;20236;-83
2022/06/08 11:29:43;;;;;;;4.13;3.70;;;;;;;28.50;45.32;98678.94;4990743;28;20213;-85
2022/06/08 11:32:27;;;;;;;3.60;3.30;;;;;;;28.80;45.42;98671.66;4990255;28;20256;-83
2022/06/08 11:35:15;;;;;;;4.78;3.90;;;;;;;29.33;45.74;98674.63;4990235;28;20196;-83
2022/06/08 11:37:47;;;;;;;7.35;4.82;;;;;;;29.85;44.45;98677.53;4941054;29;20238;-83
2022/06/08 11:40:27;;;;;;;6.47;4.50;;;;;;;30.37;43.80;98676.84;4949762;29;20266;-84
2022/06/08 11:43:00;;;;;;;5.72;4.65;;;;;;;30.97;41.77;98673.00;4935730;29;20213;-83
2022/06/08 11:45:34;;;;;;;4.47;4.07;;;;;;;30.83;41.85;98573.47;5005550;28;20807;-83
2022/06/08 11:48:00;;;;;;;6.72;4.30;;;;;;;31.92;42.03;98670.56;5006852;28;20654;-85
2022/06/08 11:50:39;;;;;;;5.22;4.28;;;;;;;32.03;42.03;98670.88;5009926;28;20197;-84
2022/06/08 11:53:14;;;;;;;6.03;4.35;;;;;;;32.63;40.60;98574.03;5021635;28;20189;-84
2022/06/08 11:56:03;;;;;;;6.55;4.20;;;;;;;33.52;38.14;98570.34;5010908;28;20188;-83